createdAt,value
2019-05-29T00:00:56.665Z,0
2019-05-29T00:01:56.368Z,0
2019-05-29T00:02:56.320Z,0
2019-05-29T00:03:57.167Z,0
2019-05-29T00:04:56.291Z,0
2019-05-29T00:05:56.405Z,0
2019-05-29T00:06:56.328Z,0
2019-05-29T00:07:56.414Z,0
2019-05-29T00:08:56.426Z,0
2019-05-29T00:09:56.692Z,0
2019-05-29T00:10:56.316Z,0
2019-05-29T00:11:56.343Z,0
2019-05-29T00:12:56.282Z,0
2019-05-29T00:13:56.309Z,0
2019-05-29T00:14:56.348Z,0
2019-05-29T00:15:56.678Z,0
2019-05-29T00:16:56.274Z,0
2019-05-29T00:17:56.674Z,0
2019-05-29T00:19:00.916Z,0
2019-05-29T00:19:56.350Z,0
2019-05-29T00:20:56.377Z,0
2019-05-29T00:21:56.348Z,0
2019-05-29T00:22:56.368Z,0
2019-05-29T00:23:56.334Z,0
2019-05-29T00:24:56.354Z,0
2019-05-29T00:25:56.375Z,0
2019-05-29T00:26:56.413Z,0
2019-05-29T00:27:56.370Z,0
2019-05-29T00:28:56.390Z,0
2019-05-29T00:29:56.580Z,0
2019-05-29T00:30:56.383Z,0
2019-05-29T00:31:56.557Z,0
2019-05-29T00:32:56.401Z,0
2019-05-29T00:33:56.646Z,0
2019-05-29T00:34:56.377Z,0
2019-05-29T00:35:56.374Z,0
2019-05-29T00:36:56.386Z,0
2019-05-29T00:37:56.366Z,0
2019-05-29T00:38:56.412Z,0
2019-05-29T00:39:56.428Z,0
2019-05-29T00:40:56.350Z,0
2019-05-29T00:41:56.360Z,0
2019-05-29T00:42:56.399Z,0
2019-05-29T00:43:56.392Z,0
2019-05-29T00:44:56.430Z,0
2019-05-29T00:45:56.642Z,0
2019-05-29T00:46:56.431Z,0
2019-05-29T00:47:57.440Z,0
2019-05-29T00:48:56.518Z,0
2019-05-29T00:49:56.402Z,0
2019-05-29T00:50:56.381Z,0
2019-05-29T00:51:56.377Z,0
2019-05-29T00:52:56.371Z,0
2019-05-29T00:53:56.346Z,0
2019-05-29T00:54:56.586Z,0
2019-05-29T00:55:56.871Z,0
2019-05-29T00:56:56.367Z,0
2019-05-29T00:57:56.710Z,0
2019-05-29T00:58:56.379Z,0
2019-05-29T00:59:56.371Z,0
2019-05-29T01:00:56.399Z,0
2019-05-29T01:01:56.364Z,0
2019-05-29T01:02:56.888Z,0
2019-05-29T01:03:56.389Z,0
2019-05-29T01:04:56.418Z,0
2019-05-29T01:05:56.394Z,0
2019-05-29T01:06:56.447Z,0
2019-05-29T01:07:56.451Z,0
2019-05-29T01:08:56.765Z,0
2019-05-29T01:09:56.431Z,0
2019-05-29T01:10:56.415Z,0
2019-05-29T01:11:56.400Z,0
2019-05-29T01:12:56.633Z,0
2019-05-29T01:13:56.517Z,0
2019-05-29T01:14:58.477Z,0
2019-05-29T01:15:56.748Z,0
2019-05-29T01:16:56.415Z,0
2019-05-29T01:17:56.673Z,0
2019-05-29T01:18:56.525Z,0
2019-05-29T01:19:56.427Z,0
2019-05-29T01:20:56.413Z,0
2019-05-29T01:21:56.421Z,0
2019-05-29T01:22:56.534Z,0
2019-05-29T01:23:56.464Z,0
2019-05-29T01:24:56.465Z,0
2019-05-29T01:25:56.489Z,0
2019-05-29T01:26:56.432Z,0
2019-05-29T01:27:56.481Z,0
2019-05-29T01:28:56.414Z,0
2019-05-29T01:29:56.496Z,0
2019-05-29T01:30:59.412Z,0
2019-05-29T01:31:56.425Z,0
2019-05-29T01:32:56.453Z,0
2019-05-29T01:33:56.416Z,0
2019-05-29T01:34:56.531Z,0
2019-05-29T01:35:57.374Z,0
2019-05-29T01:36:56.477Z,0
2019-05-29T01:37:56.710Z,0
2019-05-29T01:38:56.449Z,0
2019-05-29T01:39:56.734Z,0
2019-05-29T01:40:56.428Z,0
2019-05-29T01:41:57.662Z,0
2019-05-29T01:42:57.948Z,0
2019-05-29T01:43:56.501Z,0
2019-05-29T01:45:12.446Z,0
2019-05-29T01:45:56.481Z,0
2019-05-29T01:46:56.440Z,0
2019-05-29T01:47:56.448Z,0
2019-05-29T01:48:56.578Z,0
2019-05-29T01:49:56.444Z,0
2019-05-29T01:50:56.467Z,0
2019-05-29T01:51:56.457Z,0
2019-05-29T01:52:56.464Z,0
2019-05-29T01:53:56.416Z,0
2019-05-29T01:54:56.458Z,0
2019-05-29T01:55:56.484Z,0
2019-05-29T01:56:56.487Z,0
2019-05-29T01:57:56.417Z,0
2019-05-29T01:58:56.506Z,0
2019-05-29T01:59:56.485Z,0
2019-05-29T02:00:56.539Z,0
2019-05-29T02:01:56.462Z,0
2019-05-29T02:02:56.489Z,0
2019-05-29T02:03:57.168Z,0
2019-05-29T02:04:56.475Z,0
2019-05-29T02:05:56.481Z,0
2019-05-29T02:06:56.529Z,0
2019-05-29T02:07:56.601Z,0
2019-05-29T02:08:56.482Z,0
2019-05-29T02:09:56.490Z,0
2019-05-29T02:10:56.461Z,0
2019-05-29T02:11:56.522Z,0
2019-05-29T02:12:56.547Z,0
2019-05-29T02:13:56.513Z,0
2019-05-29T02:14:56.499Z,0
2019-05-29T02:15:56.861Z,0
2019-05-29T02:16:56.512Z,0
2019-05-29T02:17:56.459Z,0
2019-05-29T02:18:56.535Z,0
2019-05-29T02:19:56.540Z,0
2019-05-29T02:20:56.541Z,0
2019-05-29T02:21:56.898Z,0
2019-05-29T02:22:56.495Z,0
2019-05-29T02:23:56.520Z,0
2019-05-29T02:24:56.525Z,0
2019-05-29T02:25:56.552Z,0
2019-05-29T02:26:56.501Z,0
2019-05-29T02:27:56.572Z,0
2019-05-29T02:28:56.591Z,0
2019-05-29T02:29:56.496Z,0
2019-05-29T02:30:56.564Z,0
2019-05-29T02:31:56.490Z,0
2019-05-29T02:32:56.578Z,0
2019-05-29T02:33:56.909Z,0
2019-05-29T02:34:56.530Z,0
2019-05-29T02:35:56.541Z,0
2019-05-29T02:36:56.516Z,0
2019-05-29T02:37:56.548Z,0
2019-05-29T02:38:56.957Z,0
2019-05-29T02:39:56.543Z,0
2019-05-29T02:40:56.512Z,0
2019-05-29T02:41:56.532Z,0
2019-05-29T02:42:56.569Z,0
2019-05-29T02:43:56.525Z,0
2019-05-29T02:44:56.898Z,0
2019-05-29T02:46:02.548Z,0
2019-05-29T02:46:56.548Z,0
2019-05-29T02:47:56.514Z,0
2019-05-29T02:48:56.601Z,0
2019-05-29T02:49:56.526Z,0
2019-05-29T02:50:56.872Z,0
2019-05-29T02:51:56.549Z,0
2019-05-29T02:52:56.585Z,0
2019-05-29T02:53:56.719Z,0
2019-05-29T02:54:56.576Z,0
2019-05-29T02:55:56.583Z,0
2019-05-29T02:56:56.515Z,0
2019-05-29T02:57:56.542Z,0
2019-05-29T02:58:56.610Z,0
2019-05-29T02:59:56.537Z,0
2019-05-29T03:00:56.606Z,0
2019-05-29T03:01:56.569Z,0
2019-05-29T03:02:56.532Z,0
2019-05-29T03:03:56.639Z,0
2019-05-29T03:04:56.603Z,0
2019-05-29T03:05:56.558Z,0
2019-05-29T03:06:56.609Z,0
2019-05-29T03:07:56.791Z,4
2019-05-29T03:08:56.915Z,4
2019-05-29T03:09:56.636Z,4
2019-05-29T03:10:56.565Z,4
2019-05-29T03:11:59.952Z,0
2019-05-29T03:12:56.639Z,0
2019-05-29T03:13:56.623Z,0
2019-05-29T03:14:56.647Z,0
2019-05-29T03:16:18.430Z,4
2019-05-29T03:16:56.621Z,4
2019-05-29T03:17:56.641Z,4
2019-05-29T03:18:56.576Z,4
2019-05-29T03:19:56.568Z,4
2019-05-29T03:20:56.606Z,0
2019-05-29T03:21:56.644Z,0
2019-05-29T03:22:56.638Z,4
2019-05-29T03:23:56.571Z,4
2019-05-29T03:24:56.739Z,4
2019-05-29T03:25:56.661Z,4
2019-05-29T03:26:56.599Z,4
2019-05-29T03:27:56.581Z,4
2019-05-29T03:28:56.580Z,4
2019-05-29T03:29:56.566Z,4
2019-05-29T03:30:56.629Z,4
2019-05-29T03:31:56.903Z,4
2019-05-29T03:32:57.301Z,8
2019-05-29T03:33:58.817Z,4
2019-05-29T03:34:56.731Z,8
2019-05-29T03:35:56.862Z,4
2019-05-29T03:36:57.219Z,8
2019-05-29T03:37:58.855Z,8
2019-05-29T03:38:56.655Z,12
2019-05-29T03:39:56.619Z,8
2019-05-29T03:40:56.730Z,12
2019-05-29T03:41:56.641Z,12
2019-05-29T03:42:56.660Z,12
2019-05-29T03:43:56.695Z,12
2019-05-29T03:44:56.636Z,16
2019-05-29T03:45:56.642Z,16
2019-05-29T03:46:56.714Z,20
2019-05-29T03:47:56.593Z,20
2019-05-29T03:48:56.668Z,20
2019-05-29T03:49:56.669Z,20
2019-05-29T03:50:57.090Z,20
2019-05-29T03:51:56.665Z,24
2019-05-29T03:52:56.650Z,24
2019-05-29T03:53:56.732Z,24
2019-05-29T03:54:56.691Z,24
2019-05-29T03:55:56.668Z,24
2019-05-29T03:56:56.675Z,24
2019-05-29T03:57:56.726Z,24
2019-05-29T03:58:57.304Z,28
2019-05-29T03:59:57.235Z,28
2019-05-29T04:00:57.519Z,28
2019-05-29T04:01:56.664Z,32
2019-05-29T04:02:56.626Z,28
2019-05-29T04:03:56.854Z,32
2019-05-29T04:04:56.739Z,32
2019-05-29T04:05:56.704Z,32
2019-05-29T04:06:56.797Z,32
2019-05-29T04:07:57.480Z,32
2019-05-29T04:08:57.174Z,32
2019-05-29T04:09:56.696Z,32
2019-05-29T04:10:56.658Z,32
2019-05-29T04:11:56.701Z,36
2019-05-29T04:12:56.759Z,32
2019-05-29T04:13:56.717Z,32
2019-05-29T04:14:57.089Z,40
2019-05-29T04:15:56.816Z,40
2019-05-29T04:17:07.031Z,40
2019-05-29T04:17:56.706Z,40
2019-05-29T04:18:56.711Z,40
2019-05-29T04:19:56.660Z,44
2019-05-29T04:20:56.746Z,44
2019-05-29T04:21:56.718Z,52
2019-05-29T04:22:56.741Z,52
2019-05-29T04:23:56.745Z,56
2019-05-29T04:24:56.774Z,60
2019-05-29T04:25:56.717Z,68
2019-05-29T04:26:56.723Z,64
2019-05-29T04:27:56.851Z,60
2019-05-29T04:28:56.740Z,60
2019-05-29T04:29:56.761Z,64
2019-05-29T04:30:56.708Z,64
2019-05-29T04:31:56.722Z,60
2019-05-29T04:32:57.129Z,60
2019-05-29T04:33:57.167Z,60
2019-05-29T04:34:57.034Z,64
2019-05-29T04:35:56.773Z,64
2019-05-29T04:36:56.905Z,68
2019-05-29T04:37:56.746Z,64
2019-05-29T04:38:57.188Z,60
2019-05-29T04:39:57.007Z,60
2019-05-29T04:40:56.830Z,64
2019-05-29T04:41:57.100Z,64
2019-05-29T04:42:57.024Z,64
2019-05-29T04:43:59.777Z,64
2019-05-29T04:44:56.806Z,64
2019-05-29T04:45:56.926Z,64
2019-05-29T04:47:15.398Z,60
2019-05-29T04:47:56.773Z,60
2019-05-29T04:48:56.985Z,60
2019-05-29T04:49:57.089Z,64
2019-05-29T04:50:57.252Z,68
2019-05-29T04:51:56.793Z,72
2019-05-29T04:52:56.914Z,72
2019-05-29T04:53:56.854Z,80
2019-05-29T04:54:56.697Z,88
2019-05-29T04:55:56.853Z,96
2019-05-29T04:56:57.297Z,104
2019-05-29T04:57:59.016Z,116
2019-05-29T04:58:57.052Z,108
2019-05-29T04:59:56.767Z,104
2019-05-29T05:01:06.603Z,108
2019-05-29T05:01:57.002Z,112
2019-05-29T05:02:56.827Z,108
2019-05-29T05:04:01.556Z,120
2019-05-29T05:04:56.906Z,120
2019-05-29T05:05:56.790Z,120
2019-05-29T05:06:56.753Z,120
2019-05-29T05:07:56.789Z,120
2019-05-29T05:08:57.136Z,120
2019-05-29T05:09:56.814Z,124
2019-05-29T05:10:56.747Z,120
2019-05-29T05:11:56.788Z,116
2019-05-29T05:12:57.021Z,116
2019-05-29T05:13:56.851Z,120
2019-05-29T05:14:57.176Z,116
2019-05-29T05:15:56.875Z,120
2019-05-29T05:16:56.804Z,124
2019-05-29T05:17:56.770Z,132
2019-05-29T05:18:57.408Z,144
2019-05-29T05:19:56.766Z,152
2019-05-29T05:20:56.873Z,152
2019-05-29T05:21:56.842Z,172
2019-05-29T05:22:56.865Z,184
2019-05-29T05:23:57.080Z,192
2019-05-29T05:24:56.835Z,192
2019-05-29T05:25:56.765Z,176
2019-05-29T05:26:56.803Z,156
2019-05-29T05:27:56.793Z,152
2019-05-29T05:28:57.127Z,156
2019-05-29T05:29:56.811Z,156
2019-05-29T05:30:56.918Z,164
2019-05-29T05:31:56.856Z,168
2019-05-29T05:32:57.186Z,180
2019-05-29T05:34:00.640Z,180
2019-05-29T05:34:56.825Z,184
2019-05-29T05:35:56.796Z,184
2019-05-29T05:36:56.819Z,180
2019-05-29T05:37:56.852Z,196
2019-05-29T05:38:57.057Z,216
2019-05-29T05:39:56.878Z,248
2019-05-29T05:40:56.811Z,260
2019-05-29T05:41:56.795Z,248
2019-05-29T05:42:56.807Z,244
2019-05-29T05:43:56.846Z,256
2019-05-29T05:44:56.898Z,308
2019-05-29T05:45:56.817Z,308
2019-05-29T05:46:56.967Z,288
2019-05-29T05:48:05.376Z,280
2019-05-29T05:48:56.797Z,288
2019-05-29T05:49:56.826Z,332
2019-05-29T05:50:56.787Z,328
2019-05-29T05:51:56.858Z,316
2019-05-29T05:52:56.884Z,336
2019-05-29T05:53:56.850Z,364
2019-05-29T05:54:56.843Z,456
2019-05-29T05:55:56.846Z,492
2019-05-29T05:56:59.272Z,500
2019-05-29T05:57:56.852Z,488
2019-05-29T05:58:56.802Z,464
2019-05-29T05:59:56.790Z,468
2019-05-29T06:00:56.856Z,464
2019-05-29T06:01:56.862Z,424
2019-05-29T06:03:00.530Z,384
2019-05-29T06:04:07.544Z,400
2019-05-29T06:04:56.861Z,416
2019-05-29T06:05:57.289Z,416
2019-05-29T06:06:56.889Z,444
2019-05-29T06:07:56.832Z,424
2019-05-29T06:08:56.903Z,376
2019-05-29T06:09:56.868Z,372
2019-05-29T06:10:59.063Z,344
2019-05-29T06:11:57.542Z,320
2019-05-29T06:12:56.890Z,272
2019-05-29T06:13:56.856Z,244
2019-05-29T06:14:56.864Z,228
2019-05-29T06:15:56.904Z,252
2019-05-29T06:16:56.895Z,268
2019-05-29T06:18:26.741Z,256
2019-05-29T06:18:57.095Z,256
2019-05-29T06:19:56.913Z,260
2019-05-29T06:20:57.218Z,264
2019-05-29T06:21:56.882Z,252
2019-05-29T06:22:56.935Z,228
2019-05-29T06:23:56.900Z,244
2019-05-29T06:24:57.026Z,252
2019-05-29T06:25:59.887Z,216
2019-05-29T06:26:56.881Z,184
2019-05-29T06:27:57.024Z,160
2019-05-29T06:28:57.116Z,132
2019-05-29T06:29:56.859Z,120
2019-05-29T06:30:56.888Z,116
2019-05-29T06:31:56.846Z,124
2019-05-29T06:32:57.385Z,148
2019-05-29T06:34:08.203Z,160
2019-05-29T06:34:56.961Z,164
2019-05-29T06:35:56.955Z,172
2019-05-29T06:36:57.535Z,184
2019-05-29T06:37:56.876Z,200
2019-05-29T06:38:57.201Z,228
2019-05-29T06:39:56.870Z,240
2019-05-29T06:40:56.912Z,216
2019-05-29T06:41:56.925Z,212
2019-05-29T06:42:56.906Z,232
2019-05-29T06:43:57.085Z,236
2019-05-29T06:44:58.614Z,212
2019-05-29T06:45:56.892Z,208
2019-05-29T06:46:56.980Z,212
2019-05-29T06:47:56.974Z,220
2019-05-29T06:49:07.126Z,236
2019-05-29T06:49:56.953Z,232
2019-05-29T06:51:00.510Z,228
2019-05-29T06:51:57.010Z,216
2019-05-29T06:52:56.879Z,208
2019-05-29T06:53:57.000Z,236
2019-05-29T06:54:57.033Z,244
2019-05-29T06:56:05.629Z,236
2019-05-29T06:56:57.260Z,224
2019-05-29T06:57:57.030Z,224
2019-05-29T06:58:56.928Z,232
2019-05-29T06:59:56.923Z,232
2019-05-29T07:00:56.963Z,240
2019-05-29T07:01:57.075Z,240
2019-05-29T07:02:56.970Z,244
2019-05-29T07:04:15.044Z,252
2019-05-29T07:04:56.976Z,252
2019-05-29T07:06:00.270Z,240
2019-05-29T07:06:56.973Z,220
2019-05-29T07:07:56.973Z,212
2019-05-29T07:08:58.486Z,196
2019-05-29T07:09:56.925Z,200
2019-05-29T07:10:57.039Z,216
2019-05-29T07:11:57.001Z,252
2019-05-29T07:12:57.076Z,304
2019-05-29T07:13:58.555Z,408
2019-05-29T07:14:56.921Z,460
2019-05-29T07:15:57.029Z,472
2019-05-29T07:17:03.898Z,472
2019-05-29T07:17:57.044Z,476
2019-05-29T07:20:05.884Z,484
2019-05-29T07:20:16.885Z,488
2019-05-29T07:21:17.247Z,500
2019-05-29T07:22:16.895Z,520
2019-05-29T07:23:16.906Z,508
2019-05-29T07:24:16.896Z,540
2019-05-29T07:25:16.857Z,584
2019-05-29T07:26:16.938Z,608
2019-05-29T07:27:21.572Z,624
2019-05-29T07:28:16.896Z,616
2019-05-29T07:29:16.945Z,568
2019-05-29T07:30:16.927Z,524
2019-05-29T07:31:16.891Z,480
2019-05-29T07:32:16.875Z,464
2019-05-29T07:33:17.372Z,464
2019-05-29T07:34:17.001Z,452
2019-05-29T07:35:16.942Z,404
2019-05-29T07:36:16.909Z,340
2019-05-29T07:37:16.953Z,332
2019-05-29T07:38:16.886Z,392
2019-05-29T07:39:16.885Z,476
2019-05-29T07:40:16.907Z,496
2019-05-29T07:41:17.041Z,504
2019-05-29T07:42:16.952Z,492
2019-05-29T07:43:16.996Z,456
2019-05-29T07:44:17.227Z,472
2019-05-29T07:45:16.898Z,464
2019-05-29T07:46:16.978Z,452
2019-05-29T07:47:17.819Z,476
2019-05-29T07:48:16.968Z,560
2019-05-29T07:49:16.933Z,932
2019-05-29T07:50:16.919Z,720
2019-05-29T07:51:16.962Z,540
2019-05-29T07:52:16.888Z,512
2019-05-29T07:53:16.998Z,472
2019-05-29T07:54:16.987Z,456
2019-05-29T07:55:16.991Z,492
2019-05-29T07:56:29.996Z,496
2019-05-29T07:57:17.358Z,476
2019-05-29T07:58:17.190Z,464
2019-05-29T07:59:16.961Z,440
2019-05-29T08:00:16.925Z,412
2019-05-29T08:01:21.634Z,400
2019-05-29T08:02:16.972Z,392
2019-05-29T08:03:17.339Z,376
2019-05-29T08:10:47.592Z,368
2019-05-29T08:10:58.764Z,308
2019-05-29T08:11:58.674Z,332
2019-05-29T08:13:03.415Z,352
2019-05-29T08:13:58.646Z,380
2019-05-29T08:14:58.783Z,424
2019-05-29T08:16:10.504Z,488
2019-05-29T08:16:58.733Z,556
2019-05-29T08:17:58.712Z,644
2019-05-29T08:19:00.889Z,736
2019-05-29T08:20:13.536Z,668
2019-05-29T08:20:58.823Z,648
2019-05-29T08:21:59.039Z,692
2019-05-29T08:22:59.336Z,820
2019-05-29T08:23:58.748Z,832
2019-05-29T08:24:59.072Z,856
2019-05-29T08:25:59.687Z,892
2019-05-29T08:26:59.552Z,916
2019-05-29T08:27:59.044Z,852
2019-05-29T08:28:59.052Z,792
2019-05-29T08:29:59.083Z,704
2019-05-29T08:31:03.961Z,652
2019-05-29T08:31:58.889Z,640
2019-05-29T08:32:59.216Z,624
2019-05-29T08:33:59.536Z,620
2019-05-29T08:34:59.188Z,632
2019-05-29T08:36:07.603Z,644
2019-05-29T08:37:14.334Z,652
2019-05-29T08:37:59.024Z,640
2019-05-29T08:38:59.716Z,628
2019-05-29T08:39:59.856Z,608
2019-05-29T08:40:59.348Z,588
2019-05-29T08:42:29.050Z,612
2019-05-29T08:42:59.303Z,604
2019-05-29T08:43:58.968Z,568
2019-05-29T08:44:59.511Z,592
2019-05-29T08:46:00.827Z,580
2019-05-29T08:47:16.935Z,580
2019-05-29T08:47:59.777Z,568
2019-05-29T08:49:00.092Z,536
2019-05-29T08:50:22.609Z,500
2019-05-29T08:50:59.820Z,488
2019-05-29T08:52:16.827Z,444
2019-05-29T08:53:02.472Z,420
2019-05-29T08:54:01.932Z,376
2019-05-29T08:55:00.301Z,344
2019-05-29T08:55:58.811Z,320
2019-05-29T08:56:58.754Z,296
2019-05-29T08:57:58.851Z,276
2019-05-29T08:58:59.028Z,264
2019-05-29T08:59:58.958Z,260
2019-05-29T09:01:03.880Z,264
2019-05-29T09:02:04.319Z,272
2019-05-29T09:02:59.088Z,276
2019-05-29T09:03:59.562Z,284
2019-05-29T09:05:02.532Z,304
2019-05-29T09:06:18.988Z,320
2019-05-29T09:06:59.027Z,324
2019-05-29T09:08:01.865Z,340
2019-05-29T09:09:02.149Z,352
2019-05-29T09:09:59.517Z,364
2019-05-29T09:10:59.915Z,372
2019-05-29T09:11:59.680Z,384
2019-05-29T09:13:11.807Z,396
2019-05-29T09:13:59.607Z,408
2019-05-29T09:14:58.847Z,424
2019-05-29T09:15:58.795Z,432
2019-05-29T09:16:58.969Z,436
2019-05-29T09:17:58.794Z,440
2019-05-29T09:18:58.816Z,456
2019-05-29T09:19:58.777Z,460
2019-05-29T09:21:12.461Z,472
2019-05-29T09:21:59.145Z,472
2019-05-29T09:22:58.858Z,476
2019-05-29T09:24:01.353Z,484
2019-05-29T09:24:58.864Z,488
2019-05-29T09:26:20.988Z,484
2019-05-29T09:26:58.748Z,480
2019-05-29T09:27:58.778Z,476
2019-05-29T09:28:59.778Z,464
2019-05-29T09:29:58.819Z,452
2019-05-29T09:30:58.898Z,448
2019-05-29T09:31:58.889Z,448
2019-05-29T09:33:00.939Z,448
2019-05-29T09:33:58.941Z,444
2019-05-29T09:34:58.783Z,436
2019-05-29T09:35:59.074Z,428
2019-05-29T09:37:05.030Z,428
2019-05-29T09:37:58.777Z,432
2019-05-29T09:38:59.402Z,440
2019-05-29T09:39:59.082Z,456
2019-05-29T09:41:00.825Z,480
2019-05-29T09:41:58.873Z,512
2019-05-29T09:42:58.816Z,536
2019-05-29T09:44:07.430Z,560
2019-05-29T09:44:58.813Z,572
2019-05-29T09:46:02.124Z,568
2019-05-29T09:46:59.086Z,576
2019-05-29T09:47:58.812Z,580
2019-05-29T09:49:01.536Z,588
2019-05-29T09:49:58.865Z,608
2019-05-29T09:50:58.867Z,636
2019-05-29T09:52:02.497Z,644
2019-05-29T09:53:05.005Z,648
2019-05-29T09:54:04.468Z,636
2019-05-29T09:55:02.552Z,624
2019-05-29T09:56:05.615Z,616
2019-05-29T09:57:03.701Z,604
2019-05-29T09:58:03.940Z,584
2019-05-29T09:59:05.062Z,564
2019-05-29T10:00:04.146Z,544
2019-05-29T10:01:29.265Z,532
2019-05-29T10:02:08.748Z,536
2019-05-29T10:03:03.778Z,536
2019-05-29T10:04:06.298Z,540
2019-05-29T10:05:04.153Z,528
2019-05-29T10:06:01.438Z,508
2019-05-29T10:07:02.869Z,472
2019-05-29T10:08:04.307Z,448
2019-05-29T10:09:03.729Z,464
2019-05-29T10:10:05.096Z,488
2019-05-29T10:11:13.426Z,512
2019-05-29T10:12:09.031Z,524
2019-05-29T10:13:03.436Z,532
2019-05-29T10:14:02.742Z,536
2019-05-29T10:15:04.325Z,528
2019-05-29T10:16:02.843Z,528
2019-05-29T10:17:12.356Z,532
2019-05-29T10:18:02.386Z,544
2019-05-29T10:19:03.207Z,572
2019-05-29T10:20:03.260Z,592
2019-05-29T10:21:05.037Z,572
2019-05-29T10:22:03.958Z,584
2019-05-29T10:23:01.626Z,600
2019-05-29T10:24:02.661Z,596
2019-05-29T10:25:03.636Z,580
2019-05-29T10:26:04.614Z,576
2019-05-29T10:27:02.911Z,592
2019-05-29T10:27:59.058Z,616
2019-05-29T10:29:16.056Z,636
2019-05-29T10:30:01.015Z,640
2019-05-29T10:31:06.166Z,628
2019-05-29T10:32:01.633Z,636
2019-05-29T10:33:00.672Z,660
2019-05-29T10:34:00.225Z,696
2019-05-29T10:35:00.508Z,716
2019-05-29T10:36:06.667Z,752
2019-05-29T10:37:02.381Z,804
2019-05-29T10:37:58.949Z,836
2019-05-29T10:38:58.952Z,884
2019-05-29T10:39:58.968Z,864
2019-05-29T10:41:12.999Z,888
2019-05-29T10:41:58.949Z,840
2019-05-29T10:42:59.487Z,820
2019-05-29T10:43:59.537Z,796
2019-05-29T10:44:59.151Z,772
2019-05-29T10:45:59.951Z,740
2019-05-29T10:47:01.974Z,708
2019-05-29T10:48:00.263Z,692
2019-05-29T10:49:04.665Z,688
2019-05-29T10:49:59.621Z,688
2019-05-29T10:51:01.635Z,680
2019-05-29T10:52:22.573Z,672
2019-05-29T10:53:00.029Z,672
2019-05-29T10:54:04.538Z,700
2019-05-29T10:55:00.234Z,724
2019-05-29T10:56:00.455Z,748
2019-05-29T10:57:00.626Z,768
2019-05-29T10:58:00.449Z,784
2019-05-29T10:59:05.699Z,796
2019-05-29T11:00:00.053Z,792
2019-05-29T11:01:00.794Z,780
2019-05-29T11:02:01.111Z,760
2019-05-29T11:03:03.051Z,740
2019-05-29T11:04:01.715Z,712
2019-05-29T11:05:04.915Z,688
2019-05-29T11:05:59.433Z,676
2019-05-29T11:07:02.245Z,668
2019-05-29T11:08:01.429Z,668
2019-05-29T11:09:01.355Z,680
2019-05-29T11:10:01.412Z,696
2019-05-29T11:11:00.037Z,716
2019-05-29T11:12:03.106Z,740
2019-05-29T11:13:00.693Z,784
2019-05-29T11:14:00.746Z,812
2019-05-29T11:15:00.248Z,820
2019-05-29T11:16:00.045Z,860
2019-05-29T11:17:00.352Z,896
2019-05-29T11:18:00.543Z,908
2019-05-29T11:19:00.427Z,920
2019-05-29T11:20:00.966Z,936
2019-05-29T11:21:00.267Z,964
2019-05-29T11:22:27.867Z,1000
2019-05-29T11:23:00.488Z,932
2019-05-29T11:24:00.880Z,904
2019-05-29T11:25:27.527Z,888
2019-05-29T11:26:00.826Z,884
2019-05-29T11:27:01.866Z,880
2019-05-29T11:28:01.980Z,876
2019-05-29T11:29:01.462Z,864
2019-05-29T11:30:02.341Z,856
2019-05-29T11:31:08.984Z,840
2019-05-29T11:32:02.538Z,836
2019-05-29T11:33:06.362Z,832
2019-05-29T11:34:01.832Z,840
2019-05-29T11:35:02.430Z,856
2019-05-29T11:36:18.204Z,872
2019-05-29T11:37:00.889Z,884
2019-05-29T11:38:02.932Z,896
2019-05-29T11:39:08.639Z,944
2019-05-29T11:40:01.606Z,1076
2019-05-29T11:41:31.120Z,856
2019-05-29T11:41:59.975Z,812
2019-05-29T11:43:03.175Z,780
2019-05-29T11:44:01.468Z,760
2019-05-29T11:45:03.615Z,768
2019-05-29T11:46:01.772Z,784
2019-05-29T11:47:02.752Z,800
2019-05-29T11:48:05.198Z,808
2019-05-29T11:49:03.214Z,832
2019-05-29T11:50:18.996Z,892
2019-05-29T11:51:00.903Z,936
2019-05-29T11:52:39.769Z,1064
2019-05-29T11:53:01.198Z,1112
2019-05-29T11:54:02.320Z,1608
2019-05-29T11:55:10.866Z,1872
2019-05-29T11:56:04.680Z,1428
2019-05-29T11:57:03.251Z,1344
2019-05-29T11:58:02.003Z,1628
2019-05-29T11:59:00.051Z,1356
2019-05-29T12:00:19.348Z,1452
2019-05-29T12:01:01.246Z,1300
2019-05-29T12:02:06.272Z,1384
2019-05-29T12:03:02.498Z,1172
2019-05-29T12:04:38.461Z,1204
2019-05-29T12:05:04.732Z,1196
2019-05-29T12:06:03.234Z,1108
2019-05-29T12:07:01.537Z,1064
2019-05-29T12:08:02.447Z,1068
2019-05-29T12:09:02.426Z,1064
2019-05-29T12:10:04.103Z,1072
2019-05-29T12:11:00.008Z,1044
2019-05-29T12:12:02.962Z,1108
2019-05-29T12:13:01.689Z,1192
2019-05-29T12:14:03.262Z,1324
2019-05-29T12:15:21.456Z,1400
2019-05-29T12:16:00.362Z,1196
2019-05-29T12:17:03.125Z,1160
2019-05-29T12:18:29.092Z,1592
2019-05-29T12:19:00.409Z,1308
2019-05-29T12:20:04.170Z,1384
2019-05-29T12:21:02.885Z,1476
2019-05-29T12:22:03.150Z,1576
2019-05-29T12:23:31.994Z,1484
2019-05-29T12:24:01.994Z,2308
2019-05-29T12:25:03.201Z,1520
2019-05-29T12:26:28.323Z,2012
2019-05-29T12:27:02.677Z,1888
2019-05-29T12:28:03.883Z,2124
2019-05-29T12:29:14.460Z,2136
2019-05-29T12:30:01.422Z,1788
2019-05-29T12:31:04.131Z,1620
2019-05-29T12:32:09.181Z,2028
2019-05-29T12:33:01.686Z,2008
2019-05-29T12:34:18.599Z,1932
2019-05-29T12:35:05.792Z,1676
2019-05-29T12:36:01.152Z,1444
2019-05-29T12:37:01.841Z,1468
2019-05-29T12:38:01.457Z,1708
2019-05-29T12:39:02.142Z,1668
2019-05-29T12:40:03.681Z,1516
2019-05-29T12:41:01.762Z,1404
2019-05-29T12:42:01.769Z,1204
2019-05-29T12:43:03.731Z,1304
2019-05-29T12:44:01.604Z,1108
2019-05-29T12:45:01.996Z,952
2019-05-29T12:46:03.894Z,928
2019-05-29T12:47:01.785Z,1016
2019-05-29T12:48:06.264Z,980
2019-05-29T12:49:01.681Z,1100
2019-05-29T12:50:02.530Z,860
2019-05-29T12:51:04.088Z,796
2019-05-29T12:52:01.407Z,784
2019-05-29T12:53:01.613Z,780
2019-05-29T12:54:00.560Z,776
2019-05-29T12:55:00.605Z,760
2019-05-29T12:56:02.541Z,772
2019-05-29T12:57:00.954Z,784
2019-05-29T12:58:00.630Z,792
2019-05-29T12:59:02.534Z,820
2019-05-29T13:00:00.579Z,860
2019-05-29T13:01:02.934Z,820
2019-05-29T13:02:02.715Z,808
2019-05-29T13:03:02.908Z,832
2019-05-29T13:04:02.379Z,876
2019-05-29T13:05:24.409Z,1048
2019-05-29T13:06:00.370Z,1040
2019-05-29T13:07:02.481Z,996
2019-05-29T13:08:03.038Z,828
2019-05-29T13:09:02.535Z,784
2019-05-29T13:10:00.462Z,772
2019-05-29T13:11:00.414Z,756
2019-05-29T13:12:01.048Z,708
2019-05-29T13:13:13.650Z,644
2019-05-29T13:14:00.558Z,620
2019-05-29T13:15:00.697Z,596
2019-05-29T13:16:02.873Z,584
2019-05-29T13:17:01.335Z,556
2019-05-29T13:18:12.838Z,524
2019-05-29T13:19:03.277Z,504
2019-05-29T13:20:22.706Z,480
2019-05-29T13:21:00.951Z,472
2019-05-29T13:22:01.382Z,456
2019-05-29T13:23:05.332Z,444
2019-05-29T13:24:05.267Z,432
2019-05-29T13:25:01.947Z,432
2019-05-29T13:26:01.445Z,440
2019-05-29T13:27:03.630Z,456
2019-05-29T13:28:06.069Z,480
2019-05-29T13:29:01.652Z,492
2019-05-29T13:30:08.237Z,512
2019-05-29T13:31:01.480Z,512
2019-05-29T13:32:07.937Z,516
2019-05-29T13:33:07.146Z,520
2019-05-29T13:34:00.330Z,528
2019-05-29T13:35:00.496Z,540
2019-05-29T13:36:00.585Z,564
2019-05-29T13:37:09.874Z,608
2019-05-29T13:37:59.843Z,644
2019-05-29T13:39:02.346Z,736
2019-05-29T13:40:00.633Z,1168
2019-05-29T13:41:00.380Z,876
2019-05-29T13:42:04.129Z,976
2019-05-29T13:43:04.538Z,996
2019-05-29T13:44:00.479Z,1036
2019-05-29T13:45:10.925Z,1480
2019-05-29T13:46:00.385Z,1008
2019-05-29T13:47:01.835Z,872
2019-05-29T13:48:01.193Z,868
2019-05-29T13:49:00.852Z,796
2019-05-29T13:50:04.072Z,780
2019-05-29T13:51:00.191Z,788
2019-05-29T13:51:59.792Z,804
2019-05-29T13:53:01.158Z,840
2019-05-29T13:54:20.842Z,828
2019-05-29T13:54:59.872Z,764
2019-05-29T13:56:01.866Z,704
2019-05-29T13:57:02.657Z,660
2019-05-29T13:58:00.256Z,632
2019-05-29T13:59:01.665Z,624
2019-05-29T14:00:00.499Z,616
2019-05-29T14:01:01.160Z,616
2019-05-29T14:02:04.637Z,608
2019-05-29T14:03:02.434Z,580
2019-05-29T14:04:00.717Z,556
2019-05-29T14:05:02.332Z,536
2019-05-29T14:06:09.462Z,528
2019-05-29T14:07:06.707Z,500
2019-05-29T14:08:00.590Z,492